Fort Benning, Georgia
Current Conditions -  °F | °C
As of 10:58 AM on Sunday 25 Jan 2015 (Local Time) from KLSF Reporting Station
Clear Clear  
Wind Chill: 51°   Ceiling: Unl
Heat Index: 51°   Visibility: 10mi
Dew Point: 37°   Wind: 3mph
Humidity: 60%   Direction: 140°SE
Pressure: 29.98"   Gusts: NA
Location:  32.35°N, 84.97°W
Report Text: KLSF 251558Z AUTO 14003KT 10SM CLR 10/03 A2998 RMK AO2 SLP156 T01030029
Loading
Personal Weather Stations






























Interactive Weather Map New forecast layout! Learn more

10-Day Weather Forecast

Advertisements
Track Severe Weather on mobile